createdAt,value
2023-07-18T00:00:24.732Z,20.00
2023-07-18T00:02:53.456Z,16.33
2023-07-18T00:05:19.984Z,18.00
2023-07-18T00:07:47.426Z,16.33
2023-07-18T00:10:14.877Z,18.33
2023-07-18T00:12:41.372Z,19.00
2023-07-18T00:15:07.932Z,17.50
2023-07-18T00:17:34.491Z,20.00
2023-07-18T00:20:01.955Z,18.00
2023-07-18T00:22:29.405Z,16.33
2023-07-18T00:24:56.849Z,18.00
2023-07-18T00:27:24.285Z,16.00
2023-07-18T00:29:51.688Z,16.33
2023-07-18T00:32:19.119Z,16.00
2023-07-18T00:34:46.500Z,15.00
2023-07-18T00:40:08.082Z,18.00
2023-07-18T00:42:34.602Z,21.00
2023-07-18T00:45:01.132Z,19.00
2023-07-18T00:47:27.690Z,18.00
2023-07-18T00:49:55.125Z,15.33
2023-07-18T00:55:05.472Z,16.50
2023-07-18T00:57:31.978Z,16.50
2023-07-18T00:59:58.878Z,17.50
2023-07-18T01:02:25.470Z,17.00
2023-07-18T01:04:52.877Z,15.00
2023-07-18T01:10:14.198Z,17.00
2023-07-18T01:12:40.694Z,16.50
2023-07-18T01:15:08.054Z,15.67
2023-07-18T01:17:34.590Z,19.00
2023-07-18T01:20:02.652Z,17.00
2023-07-18T01:25:15.072Z,15.00
2023-07-18T01:27:41.559Z,16.00
2023-07-18T01:30:08.063Z,12.50
2023-07-18T01:32:34.587Z,14.00
2023-07-18T01:35:03.872Z,9.50
2023-07-18T01:40:15.045Z,13.00
2023-07-18T01:42:41.582Z,11.00
2023-07-18T01:45:08.937Z,12.33
2023-07-18T01:47:36.282Z,13.00
2023-07-18T01:50:02.747Z,12.00
2023-07-18T01:55:14.247Z,14.00
2023-07-18T01:57:42.597Z,9.80
2023-07-18T02:00:09.106Z,10.00
2023-07-18T02:02:35.734Z,10.00
2023-07-18T02:05:02.273Z,10.67
2023-07-18T02:10:13.542Z,7.50
2023-07-18T02:12:39.944Z,7.00
2023-07-18T02:15:06.405Z,4.67
2023-07-18T02:17:32.829Z,6.00
2023-07-18T02:19:59.274Z,6.00
2023-07-18T02:25:09.568Z,6.00
2023-07-18T02:27:35.972Z,6.00
2023-07-18T02:30:02.419Z,5.00
2023-07-18T02:32:28.869Z,5.67
2023-07-18T02:34:55.288Z,5.33
2023-07-18T02:40:05.664Z,8.00
2023-07-18T02:42:32.084Z,5.33
2023-07-18T02:44:58.476Z,6.00
2023-07-18T02:47:24.941Z,6.00
2023-07-18T02:49:51.351Z,5.33
2023-07-18T02:55:02.655Z,5.00
2023-07-18T02:57:29.106Z,6.00
2023-07-18T02:59:55.520Z,4.33
2023-07-18T03:02:22.071Z,6.00
2023-07-18T03:04:48.651Z,5.00
2023-07-18T03:09:59.813Z,6.00
2023-07-18T03:12:26.242Z,5.00
2023-07-18T03:14:52.654Z,6.00
2023-07-18T03:17:19.105Z,7.00
2023-07-18T03:19:46.412Z,6.00
2023-07-18T03:22:13.722Z,6.25
2023-07-18T03:24:40.146Z,6.00
2023-07-18T03:27:06.573Z,6.00
2023-07-18T03:29:33.857Z,5.50
2023-07-18T03:32:00.380Z,4.67
2023-07-18T03:34:26.833Z,5.00
2023-07-18T03:36:53.273Z,5.33
2023-07-18T03:39:19.674Z,6.33
2023-07-18T03:41:46.099Z,5.00
2023-07-18T03:44:12.520Z,5.67
2023-07-18T03:46:38.986Z,4.33
2023-07-18T03:49:05.466Z,5.00
2023-07-18T03:51:37.172Z,8.00
2023-07-18T03:54:04.075Z,5.33
2023-07-18T03:56:30.878Z,6.00
2023-07-18T03:58:57.301Z,6.67
2023-07-18T04:01:23.738Z,6.33
2023-07-18T04:03:50.273Z,5.67
2023-07-18T04:06:17.614Z,6.00
2023-07-18T04:08:44.047Z,6.33
2023-07-18T04:11:10.464Z,6.00
2023-07-18T04:13:36.879Z,6.00
2023-07-18T04:16:03.351Z,6.33
2023-07-18T04:18:29.848Z,5.33
2023-07-18T04:20:56.298Z,7.33
2023-07-18T04:23:22.710Z,6.67
2023-07-18T04:25:49.114Z,5.00
2023-07-18T04:28:16.383Z,6.00
2023-07-18T04:30:43.652Z,9.00
2023-07-18T04:33:10.943Z,7.00
2023-07-18T04:35:37.328Z,6.33
2023-07-18T04:38:03.750Z,5.00
2023-07-18T04:43:15.005Z,6.75
2023-07-18T04:45:42.892Z,8.00
2023-07-18T04:48:10.228Z,8.00
2023-07-18T04:50:36.645Z,7.00
2023-07-18T04:53:03.104Z,8.50
2023-07-18T04:58:14.260Z,7.50
2023-07-18T05:00:42.527Z,6.00
2023-07-18T05:03:08.971Z,7.00
2023-07-18T05:05:36.266Z,7.00
2023-07-18T05:08:02.680Z,5.00
2023-07-18T05:13:13.716Z,7.50
2023-07-18T05:15:40.184Z,5.33
2023-07-18T05:18:06.717Z,6.00
2023-07-18T05:20:33.162Z,7.33
2023-07-18T05:22:59.872Z,8.00
2023-07-18T05:28:10.541Z,11.00
2023-07-18T05:30:37.837Z,7.00
2023-07-18T05:33:04.371Z,7.67
2023-07-18T05:35:31.697Z,8.50
2023-07-18T05:37:58.136Z,7.00
2023-07-18T05:43:09.495Z,6.25
2023-07-18T05:45:36.794Z,6.75
2023-07-18T05:48:03.313Z,6.00
2023-07-18T05:50:29.818Z,13.00
2023-07-18T05:52:57.096Z,8.00
2023-07-18T05:58:07.645Z,7.00
2023-07-18T06:00:34.074Z,7.67
2023-07-18T06:03:00.590Z,7.00
2023-07-18T06:05:27.068Z,6.67
2023-07-18T06:07:53.702Z,5.67
2023-07-18T06:13:04.528Z,6.00
2023-07-18T06:15:30.968Z,6.50
2023-07-18T06:17:57.438Z,7.00
2023-07-18T06:20:24.832Z,6.00
2023-07-18T06:22:51.291Z,6.33
2023-07-18T06:28:02.412Z,21.00
2023-07-18T06:30:29.855Z,27.00
2023-07-18T06:32:56.384Z,18.50
2023-07-18T06:35:24.031Z,9.00
2023-07-18T06:37:50.754Z,8.00
2023-07-18T06:43:01.895Z,7.33
2023-07-18T06:45:28.367Z,6.00
2023-07-18T06:47:54.839Z,5.00
2023-07-18T06:50:21.258Z,7.00
2023-07-18T06:52:47.679Z,7.00
2023-07-18T06:55:14.177Z,9.00
2023-07-18T06:57:44.783Z,11.00
2023-07-18T07:00:11.494Z,8.50
2023-07-18T07:02:37.891Z,7.00
2023-07-18T07:05:04.350Z,6.00
2023-07-18T07:07:30.796Z,6.33
2023-07-18T07:09:57.230Z,5.00
2023-07-18T07:12:35.497Z,6.00
2023-07-18T07:15:02.937Z,6.00
2023-07-18T07:17:29.403Z,6.67
2023-07-18T07:19:55.844Z,6.00
2023-07-18T07:22:22.263Z,5.67
2023-07-18T07:24:48.706Z,3.00
2023-07-18T07:27:16.042Z,3.25
2023-07-18T07:29:42.456Z,3.00
2023-07-18T07:32:08.859Z,4.00
2023-07-18T07:34:36.892Z,5.00
2023-07-18T07:37:04.205Z,3.67
2023-07-18T07:39:30.614Z,4.00
2023-07-18T07:41:57.036Z,3.67
2023-07-18T07:44:23.496Z,4.33
2023-07-18T07:46:50.026Z,5.00
2023-07-18T07:49:16.463Z,5.00
2023-07-18T07:51:42.870Z,3.33
2023-07-18T07:54:09.311Z,2.67
2023-07-18T07:56:35.732Z,2.00
2023-07-18T07:59:11.087Z,2.00
2023-07-18T08:01:38.366Z,4.00
2023-07-18T08:04:04.880Z,7.00
2023-07-18T08:06:31.318Z,3.67
2023-07-18T08:08:57.760Z,2.00
2023-07-18T08:16:58.237Z,2.00
2023-07-18T08:19:24.635Z,1.00
2023-07-18T08:21:51.035Z,1.00
2023-07-18T08:24:17.435Z,2.00
2023-07-18T08:26:43.868Z,4.00
2023-07-18T08:29:11.169Z,7.00
2023-07-18T08:31:37.703Z,6.00
2023-07-18T08:34:04.205Z,4.00
2023-07-18T08:36:30.630Z,3.00
2023-07-18T08:38:57.039Z,4.00
2023-07-18T08:41:23.566Z,5.00
2023-07-18T08:46:33.851Z,7.00
2023-07-18T08:49:00.294Z,7.50
2023-07-18T08:51:26.699Z,4.67
2023-07-18T08:53:53.082Z,2.33
2023-07-18T08:56:19.500Z,3.00
2023-07-18T09:01:29.772Z,3.00
2023-07-18T09:03:56.355Z,3.00
2023-07-18T09:06:22.907Z,2.00
2023-07-18T09:08:49.556Z,2.00
2023-07-18T09:11:15.970Z,3.00
2023-07-18T09:16:36.437Z,2.00
2023-07-18T09:19:02.846Z,2.00
2023-07-18T09:21:29.253Z,3.00
2023-07-18T09:23:55.646Z,2.00
2023-07-18T09:26:22.065Z,2.00
2023-07-18T09:31:32.490Z,1.67
2023-07-18T09:33:58.919Z,2.00
2023-07-18T09:36:25.313Z,1.67
2023-07-18T09:38:51.716Z,2.00
2023-07-18T09:41:18.632Z,1.67
2023-07-18T09:46:39.288Z,2.00
2023-07-18T09:49:05.704Z,3.00
2023-07-18T09:51:32.120Z,2.00
2023-07-18T09:53:58.519Z,2.00
2023-07-18T09:56:25.121Z,2.00
2023-07-18T10:01:35.587Z,2.00
2023-07-18T10:04:02.069Z,3.33
2023-07-18T10:06:28.525Z,6.00
2023-07-18T10:08:54.990Z,1.67
2023-07-18T10:11:21.759Z,3.00
2023-07-18T10:16:32.508Z,2.33
2023-07-18T10:18:58.953Z,2.00
2023-07-18T10:21:25.341Z,2.67
2023-07-18T10:23:51.764Z,2.67
2023-07-18T10:26:19.015Z,3.00
2023-07-18T10:31:29.149Z,3.00
2023-07-18T10:33:55.613Z,2.67
2023-07-18T10:36:22.024Z,4.00
2023-07-18T10:38:48.459Z,4.00
2023-07-18T10:41:15.748Z,4.00
2023-07-18T10:46:25.969Z,6.67
2023-07-18T10:48:52.506Z,10.00
2023-07-18T10:51:19.072Z,5.00
2023-07-18T10:53:45.886Z,5.00
2023-07-18T10:56:12.282Z,3.00
2023-07-18T10:58:38.712Z,5.00
2023-07-18T11:01:05.255Z,4.00
2023-07-18T11:03:31.738Z,4.33
2023-07-18T11:05:58.199Z,5.00
2023-07-18T11:08:24.605Z,5.00
2023-07-18T11:10:51.031Z,6.00
2023-07-18T11:13:17.466Z,4.00
2023-07-18T11:15:43.899Z,7.00
2023-07-18T11:18:10.349Z,5.00
2023-07-18T11:20:36.759Z,6.33
2023-07-18T11:23:03.201Z,4.33
2023-07-18T11:25:29.661Z,5.00
2023-07-18T11:27:56.087Z,4.00
2023-07-18T11:30:22.517Z,6.00
2023-07-18T11:32:49.141Z,7.00
2023-07-18T11:35:16.470Z,4.75
2023-07-18T11:37:43.735Z,6.50
2023-07-18T11:40:10.171Z,4.00
2023-07-18T11:42:36.610Z,2.00
2023-07-18T11:45:03.028Z,3.00
2023-07-18T11:47:29.592Z,3.00
2023-07-18T11:49:56.039Z,2.00
2023-07-18T11:52:22.430Z,2.33
2023-07-18T11:54:48.919Z,2.00
2023-07-18T11:57:15.373Z,3.67
2023-07-18T11:59:41.816Z,3.00
2023-07-18T12:02:08.399Z,2.00
2023-07-18T12:04:34.813Z,2.00
2023-07-18T12:07:01.284Z,2.33
2023-07-18T12:09:27.884Z,3.67
2023-07-18T12:11:54.312Z,3.00
2023-07-18T12:14:21.590Z,2.00
2023-07-18T12:19:31.979Z,1.33
2023-07-18T12:21:58.356Z,1.67
2023-07-18T12:24:24.816Z,2.00
2023-07-18T12:26:51.218Z,2.00
2023-07-18T12:29:17.631Z,3.00
2023-07-18T12:34:27.849Z,2.00
2023-07-18T12:36:57.048Z,1.00
2023-07-18T12:39:23.525Z,2.00
2023-07-18T12:41:49.953Z,2.00
2023-07-18T12:44:16.382Z,2.00
2023-07-18T12:51:55.977Z,3.00
2023-07-18T12:54:22.394Z,1.00
2023-07-18T12:56:48.815Z,1.33
2023-07-18T12:59:15.257Z,1.00
2023-07-18T13:04:28.244Z,1.00
2023-07-18T13:06:54.632Z,0.33
2023-07-18T13:09:21.065Z,1.00
2023-07-18T13:11:47.472Z,0.33
2023-07-18T13:14:13.893Z,0.00
2023-07-18T13:19:24.243Z,1.00
2023-07-18T13:21:50.658Z,2.67
2023-07-18T13:24:17.977Z,3.00
2023-07-18T13:26:44.424Z,2.00
2023-07-18T13:29:10.843Z,1.00
2023-07-18T13:34:21.332Z,1.67
2023-07-18T13:36:47.715Z,1.00
2023-07-18T13:39:14.351Z,0.00
2023-07-18T13:41:40.902Z,1.00
2023-07-18T13:44:07.320Z,1.00
2023-07-18T13:49:17.582Z,2.00
2023-07-18T13:51:43.961Z,1.00
2023-07-18T13:54:10.373Z,1.33
2023-07-18T13:56:36.818Z,0.00
2023-07-18T13:59:03.207Z,0.33
2023-07-18T14:04:13.520Z,1.00
2023-07-18T14:06:40.016Z,1.00
2023-07-18T14:09:06.419Z,1.00
2023-07-18T14:11:32.832Z,0.00
2023-07-18T14:14:02.099Z,1.00
2023-07-18T14:16:28.589Z,0.67
2023-07-18T14:18:55.055Z,0.00
2023-07-18T14:21:21.412Z,0.67
2023-07-18T14:23:47.794Z,1.00
2023-07-18T14:26:14.269Z,0.33
2023-07-18T14:28:40.687Z,1.00
2023-07-18T14:31:07.151Z,1.00
2023-07-18T14:33:33.562Z,1.00
2023-07-18T14:35:59.966Z,0.67
2023-07-18T14:38:26.332Z,0.00
2023-07-18T14:40:52.760Z,1.00
2023-07-18T14:43:21.966Z,1.00
2023-07-18T14:45:48.348Z,3.00
2023-07-18T14:48:15.641Z,2.00
2023-07-18T14:50:42.064Z,1.00
2023-07-18T14:53:08.448Z,1.00
2023-07-18T14:55:35.408Z,1.00
2023-07-18T14:58:02.179Z,1.00
2023-07-18T15:00:28.627Z,1.00
2023-07-18T15:02:55.048Z,1.00
2023-07-18T15:05:21.461Z,3.33
2023-07-18T15:07:47.915Z,4.00
2023-07-18T15:10:14.366Z,3.00
2023-07-18T15:12:40.845Z,2.00
2023-07-18T15:15:07.308Z,2.00
2023-07-18T15:17:33.836Z,1.00
2023-07-18T15:20:00.302Z,1.33
2023-07-18T15:22:26.858Z,2.00
2023-07-18T15:24:53.463Z,5.00
2023-07-18T15:27:19.959Z,4.00
2023-07-18T15:29:46.387Z,1.33
2023-07-18T15:32:13.760Z,1.00
2023-07-18T15:37:24.125Z,2.00
2023-07-18T15:39:50.618Z,2.00
2023-07-18T15:42:17.087Z,1.00
2023-07-18T15:44:43.674Z,5.00
2023-07-18T15:47:11.027Z,4.00
2023-07-18T15:52:21.293Z,2.33
2023-07-18T15:54:47.705Z,2.00
2023-07-18T15:57:14.111Z,2.00
2023-07-18T15:59:40.564Z,2.00
2023-07-18T16:02:07.056Z,1.00
2023-07-18T16:07:17.883Z,1.00
2023-07-18T16:09:44.343Z,2.00
2023-07-18T16:12:10.783Z,1.00
2023-07-18T16:14:37.187Z,0.33
2023-07-18T16:17:03.642Z,2.00
2023-07-18T16:22:14.000Z,1.00
2023-07-18T16:24:40.415Z,1.67
2023-07-18T16:27:06.809Z,1.00
2023-07-18T16:29:33.263Z,2.00
2023-07-18T16:31:59.728Z,2.00
2023-07-18T16:37:09.864Z,2.00
2023-07-18T16:39:36.269Z,1.00
2023-07-18T16:42:13.511Z,1.00
2023-07-18T16:44:48.615Z,4.00
2023-07-18T16:47:15.955Z,2.00
2023-07-18T16:52:26.082Z,1.00
2023-07-18T16:54:52.488Z,1.33
2023-07-18T16:57:18.929Z,2.00
2023-07-18T16:59:45.293Z,1.00
2023-07-18T17:02:11.700Z,1.00
2023-07-18T17:07:22.295Z,1.00
2023-07-18T17:09:48.691Z,1.00
2023-07-18T17:12:15.117Z,1.00
2023-07-18T17:14:41.492Z,1.00
2023-07-18T17:17:07.898Z,1.00
2023-07-18T17:22:19.403Z,4.25
2023-07-18T17:24:45.886Z,2.00
2023-07-18T17:27:13.240Z,2.00
2023-07-18T17:29:39.648Z,2.00
2023-07-18T17:32:06.087Z,2.00
2023-07-18T17:37:17.280Z,6.75
2023-07-18T17:39:43.717Z,6.00
2023-07-18T17:42:10.999Z,4.00
2023-07-18T17:44:37.380Z,2.33
2023-07-18T17:47:04.074Z,2.00
2023-07-18T17:52:14.538Z,2.00
2023-07-18T17:54:40.968Z,1.67
2023-07-18T17:57:07.445Z,1.00
2023-07-18T17:59:33.878Z,2.00
2023-07-18T18:02:00.320Z,1.00
2023-07-18T18:04:26.745Z,1.33
2023-07-18T18:06:53.155Z,6.00
2023-07-18T18:09:20.478Z,4.00
2023-07-18T18:11:46.906Z,2.67
2023-07-18T18:14:13.362Z,2.00
2023-07-18T18:16:39.791Z,2.00
2023-07-18T18:19:06.196Z,2.00
2023-07-18T18:21:32.570Z,2.00
2023-07-18T18:23:58.960Z,1.33
2023-07-18T18:26:25.381Z,2.00
2023-07-18T18:28:51.800Z,2.00
2023-07-18T18:31:19.427Z,2.00
2023-07-18T18:33:46.189Z,2.33
2023-07-18T18:36:13.491Z,2.00
2023-07-18T18:38:39.918Z,2.00
2023-07-18T18:41:06.336Z,1.00
2023-07-18T18:43:32.744Z,2.00
2023-07-18T18:45:59.182Z,3.00
2023-07-18T18:48:25.595Z,2.00
2023-07-18T18:50:52.022Z,2.00
2023-07-18T18:53:18.418Z,3.00
2023-07-18T18:55:44.807Z,2.00
2023-07-18T18:58:13.979Z,2.33
2023-07-18T19:00:40.818Z,2.33
2023-07-18T19:03:07.254Z,2.00
2023-07-18T19:05:33.713Z,1.67
2023-07-18T19:10:56.433Z,3.00
2023-07-18T19:13:30.588Z,3.00
2023-07-18T19:15:56.982Z,2.00
2023-07-18T19:18:23.436Z,2.00
2023-07-18T19:20:49.891Z,4.00
2023-07-18T19:26:00.175Z,2.00
2023-07-18T19:28:27.186Z,4.00
2023-07-18T19:30:53.636Z,3.33
2023-07-18T19:33:20.928Z,2.75
2023-07-18T19:35:47.346Z,5.00
2023-07-18T19:41:07.513Z,4.67
2023-07-18T19:43:33.960Z,3.00
2023-07-18T19:46:00.439Z,4.00
2023-07-18T19:48:26.944Z,7.00
2023-07-18T19:50:53.430Z,6.00
2023-07-18T19:56:04.899Z,6.00
2023-07-18T19:58:32.183Z,5.00
2023-07-18T20:00:59.525Z,7.75
2023-07-18T20:03:26.079Z,13.00
2023-07-18T20:05:53.540Z,12.00
2023-07-18T20:11:15.218Z,15.00
2023-07-18T20:13:42.516Z,9.00
2023-07-18T20:16:09.012Z,8.00
2023-07-18T20:18:35.468Z,6.50
2023-07-18T20:21:01.894Z,7.00
2023-07-18T20:26:13.080Z,5.00
2023-07-18T20:28:39.513Z,7.00
2023-07-18T20:31:08.797Z,9.00
2023-07-18T20:33:36.136Z,7.75
2023-07-18T20:36:03.478Z,6.25
2023-07-18T20:41:13.674Z,4.67
2023-07-18T20:43:40.126Z,5.00
2023-07-18T20:46:06.590Z,3.33
2023-07-18T20:48:33.008Z,5.00
2023-07-18T20:50:59.416Z,6.33
2023-07-18T20:56:13.559Z,7.00
2023-07-18T20:58:40.877Z,10.00
2023-07-18T21:01:07.376Z,6.67
2023-07-18T21:03:33.919Z,5.67
2023-07-18T21:06:00.465Z,5.00
2023-07-18T21:11:11.676Z,6.00
2023-07-18T21:13:38.305Z,5.00
2023-07-18T21:16:04.794Z,5.00
2023-07-18T21:18:31.261Z,4.00
2023-07-18T21:20:57.705Z,4.00
2023-07-18T21:26:08.138Z,4.00
2023-07-18T21:28:34.567Z,3.67
2023-07-18T21:31:01.114Z,5.00
2023-07-18T21:33:27.583Z,5.00
2023-07-18T21:35:53.993Z,6.00
2023-07-18T21:41:04.477Z,5.00
2023-07-18T21:43:31.070Z,4.00
2023-07-18T21:45:57.610Z,6.33
2023-07-18T21:48:24.077Z,6.00
2023-07-18T21:50:50.596Z,26.00
2023-07-18T21:53:18.068Z,32.50
2023-07-18T21:55:44.870Z,8.50
2023-07-18T21:58:11.472Z,37.00
2023-07-18T22:00:37.990Z,10.50
2023-07-18T22:03:04.624Z,9.00
2023-07-18T22:05:31.307Z,10.00
2023-07-18T22:07:57.824Z,8.50
2023-07-18T22:10:24.260Z,5.00
2023-07-18T22:12:50.671Z,5.00
2023-07-18T22:15:20.717Z,4.75
2023-07-18T22:17:48.217Z,4.67
2023-07-18T22:20:15.575Z,4.50
2023-07-18T22:22:42.051Z,3.00
2023-07-18T22:25:08.541Z,4.33
2023-07-18T22:27:34.948Z,4.00
2023-07-18T22:30:01.371Z,3.00
2023-07-18T22:32:28.975Z,5.67
2023-07-18T22:34:56.471Z,5.00
2023-07-18T22:37:22.868Z,5.00
2023-07-18T22:39:49.607Z,4.00
2023-07-18T22:42:16.975Z,9.00
2023-07-18T22:44:43.410Z,8.00
2023-07-18T22:47:10.690Z,7.50
2023-07-18T22:49:38.038Z,8.50
2023-07-18T22:52:04.474Z,7.67
2023-07-18T22:54:30.910Z,6.33
2023-07-18T22:56:57.318Z,5.33
2023-07-18T22:59:23.725Z,5.00
2023-07-18T23:01:50.145Z,5.00
2023-07-18T23:04:16.587Z,5.00
2023-07-18T23:06:43.874Z,5.25
2023-07-18T23:09:11.158Z,6.00
2023-07-18T23:14:21.624Z,8.00
2023-07-18T23:16:48.093Z,5.33
2023-07-18T23:19:15.469Z,6.75
2023-07-18T23:21:41.893Z,8.00
2023-07-18T23:24:08.295Z,6.00
2023-07-18T23:29:19.513Z,7.75
2023-07-18T23:31:45.919Z,6.00
2023-07-18T23:34:13.217Z,6.00
2023-07-18T23:36:39.650Z,7.67
2023-07-18T23:39:06.091Z,5.33
2023-07-18T23:44:16.325Z,6.00
2023-07-18T23:46:42.901Z,5.00
2023-07-18T23:49:09.440Z,6.00
2023-07-18T23:51:35.978Z,6.67
2023-07-18T23:54:02.382Z,5.67
2023-07-18T23:59:13.366Z,5.25
